createdAt,value
2023-04-16T00:01:40.523Z,8.48
2023-04-16T00:04:07.462Z,8.50
2023-04-16T00:06:34.417Z,8.40
2023-04-16T00:09:01.380Z,8.48
2023-04-16T00:11:28.164Z,8.57
2023-04-16T00:13:54.833Z,8.54
2023-04-16T00:16:21.645Z,8.55
2023-04-16T00:18:48.441Z,8.61
2023-04-16T00:21:15.252Z,8.58
2023-04-16T00:23:42.055Z,8.55
2023-04-16T00:26:09.246Z,8.54
2023-04-16T00:28:36.237Z,8.54
2023-04-16T00:31:03.217Z,8.58
2023-04-16T00:33:30.431Z,8.54
2023-04-16T00:35:57.188Z,8.57
2023-04-16T00:38:24.174Z,8.57
2023-04-16T00:40:50.871Z,8.60
2023-04-16T00:43:25.614Z,8.58
2023-04-16T00:45:54.285Z,8.45
2023-04-16T00:48:21.312Z,8.40
2023-04-16T00:50:48.685Z,8.41
2023-04-16T00:53:16.352Z,8.41
2023-04-16T00:55:44.033Z,8.47
2023-04-16T00:58:11.038Z,8.37
2023-04-16T01:00:37.852Z,8.40
2023-04-16T01:03:05.891Z,8.37
2023-04-16T01:05:32.793Z,8.33
2023-04-16T01:08:02.892Z,8.43
2023-04-16T01:10:30.212Z,8.45
2023-04-16T01:12:57.179Z,8.53
2023-04-16T01:15:24.114Z,8.51
2023-04-16T01:17:51.112Z,8.45
2023-04-16T01:20:18.076Z,8.44
2023-04-16T01:22:44.855Z,8.48
2023-04-16T01:25:16.012Z,8.50
2023-04-16T01:27:42.915Z,8.48
2023-04-16T01:30:10.062Z,8.55
2023-04-16T01:32:36.941Z,8.55
2023-04-16T01:35:03.983Z,8.54
2023-04-16T01:37:31.414Z,8.47
2023-04-16T01:39:58.352Z,8.51
2023-04-16T01:42:25.114Z,8.57
2023-04-16T01:44:51.885Z,8.62
2023-04-16T01:47:18.711Z,8.48
2023-04-16T01:49:48.401Z,8.51
2023-04-16T01:52:15.240Z,8.58
2023-04-16T01:54:42.307Z,8.54
2023-04-16T01:57:09.516Z,8.55
2023-04-16T01:59:36.318Z,8.53
2023-04-16T02:02:13.655Z,8.53
2023-04-16T02:04:42.067Z,8.55
2023-04-16T02:07:09.282Z,8.61
2023-04-16T02:09:40.627Z,8.62
2023-04-16T02:12:08.001Z,8.48
2023-04-16T02:14:34.737Z,8.44
2023-04-16T02:17:01.556Z,8.44
2023-04-16T02:19:28.372Z,8.44
2023-04-16T02:21:55.729Z,8.44
2023-04-16T02:24:22.665Z,8.36
2023-04-16T02:26:49.514Z,8.40
2023-04-16T02:29:16.719Z,8.45
2023-04-16T02:31:43.639Z,8.45
2023-04-16T02:34:10.511Z,8.43
2023-04-16T02:36:37.206Z,8.47
2023-04-16T02:39:04.402Z,8.47
2023-04-16T02:41:31.113Z,8.36
2023-04-16T02:43:57.857Z,8.41
2023-04-16T02:46:24.818Z,8.45
2023-04-16T02:48:51.724Z,8.47
2023-04-16T02:51:18.447Z,8.36
2023-04-16T02:53:46.309Z,8.38
2023-04-16T02:56:13.271Z,8.34
2023-04-16T02:58:39.946Z,8.38
2023-04-16T03:01:06.690Z,8.34
2023-04-16T03:03:33.497Z,8.34
2023-04-16T03:06:00.462Z,8.37
2023-04-16T03:08:27.867Z,8.34
2023-04-16T03:10:54.768Z,8.27
2023-04-16T03:13:21.569Z,8.34
2023-04-16T03:15:49.932Z,8.29
2023-04-16T03:18:16.748Z,8.29
2023-04-16T03:20:43.485Z,8.40
2023-04-16T03:23:10.603Z,8.37
2023-04-16T03:25:37.306Z,8.31
2023-04-16T03:28:04.699Z,8.37
2023-04-16T03:30:31.669Z,8.30
2023-04-16T03:32:58.536Z,8.31
2023-04-16T03:35:25.340Z,8.30
2023-04-16T03:37:52.884Z,8.27
2023-04-16T03:40:19.627Z,8.31
2023-04-16T03:42:46.672Z,8.30
2023-04-16T03:45:13.573Z,8.27
2023-04-16T03:47:40.401Z,8.29
2023-04-16T03:50:07.984Z,8.31
2023-04-16T03:52:34.773Z,8.27
2023-04-16T03:55:03.934Z,8.26
2023-04-16T03:57:30.639Z,8.24
2023-04-16T03:59:57.455Z,8.30
2023-04-16T04:02:24.341Z,8.36
2023-04-16T04:04:51.299Z,8.33
2023-04-16T04:07:18.175Z,8.31
2023-04-16T04:09:44.858Z,8.31
2023-04-16T04:12:11.663Z,8.33
2023-04-16T04:14:40.243Z,8.34
2023-04-16T04:17:08.858Z,8.40
2023-04-16T04:19:42.341Z,8.33
2023-04-16T04:22:14.144Z,8.38
2023-04-16T04:24:40.852Z,8.40
2023-04-16T04:27:07.704Z,8.40
2023-04-16T04:29:34.553Z,8.44
2023-04-16T04:32:02.130Z,8.45
2023-04-16T04:34:29.075Z,8.41
2023-04-16T04:36:55.844Z,8.41
2023-04-16T04:39:22.732Z,8.45
2023-04-16T04:41:49.594Z,8.48
2023-04-16T04:44:16.727Z,8.41
2023-04-16T04:46:43.591Z,8.50
2023-04-16T04:49:10.581Z,8.48
2023-04-16T04:51:37.700Z,8.51
2023-04-16T04:54:04.625Z,8.51
2023-04-16T04:56:31.331Z,8.61
2023-04-16T04:58:58.105Z,8.55
2023-04-16T05:01:25.054Z,8.58
2023-04-16T05:03:51.848Z,8.65
2023-04-16T05:06:18.769Z,8.69
2023-04-16T05:08:45.585Z,8.65
2023-04-16T05:11:12.330Z,8.64
2023-04-16T05:13:39.373Z,8.68
2023-04-16T05:16:07.052Z,8.68
2023-04-16T05:18:33.769Z,8.72
2023-04-16T05:21:00.618Z,8.67
2023-04-16T05:23:27.329Z,8.79
2023-04-16T05:25:54.122Z,8.76
2023-04-16T05:28:20.867Z,8.81
2023-04-16T05:30:47.557Z,8.75
2023-04-16T05:33:15.043Z,8.78
2023-04-16T05:35:41.928Z,8.83
2023-04-16T05:38:08.789Z,8.85
2023-04-16T05:40:44.265Z,8.83
2023-04-16T05:43:11.202Z,8.78
2023-04-16T05:45:41.645Z,8.86
2023-04-16T05:48:11.529Z,8.92
2023-04-16T05:50:38.747Z,8.83
2023-04-16T05:53:09.601Z,8.82
2023-04-16T05:55:39.244Z,8.79
2023-04-16T05:58:06.069Z,8.88
2023-04-16T06:00:33.667Z,8.91
2023-04-16T06:03:00.943Z,8.95
2023-04-16T06:05:28.106Z,8.93
2023-04-16T06:07:56.220Z,8.93
2023-04-16T06:10:23.092Z,8.88
2023-04-16T06:12:52.814Z,8.89
2023-04-16T06:15:19.619Z,8.85
2023-04-16T06:17:46.438Z,8.88
2023-04-16T06:20:13.599Z,8.93
2023-04-16T06:22:40.835Z,8.88
2023-04-16T06:25:08.023Z,8.95
2023-04-16T06:27:34.772Z,8.93
2023-04-16T06:33:39.722Z,8.96
2023-04-16T06:36:06.503Z,8.98
2023-04-16T06:41:14.637Z,9.08
2023-04-16T06:46:24.380Z,9.12
2023-04-16T06:51:31.482Z,9.13
2023-04-16T06:56:38.439Z,9.20
2023-04-16T06:59:05.056Z,9.18
2023-04-16T07:01:33.864Z,9.20
2023-04-16T07:04:00.900Z,9.23
2023-04-16T07:06:28.050Z,9.26
2023-04-16T07:08:54.650Z,9.20
2023-04-16T07:11:21.444Z,9.18
2023-04-16T07:13:48.210Z,9.27
2023-04-16T07:16:14.895Z,9.23
2023-04-16T07:18:41.499Z,9.23
2023-04-16T07:21:08.171Z,9.13
2023-04-16T07:23:34.799Z,9.24
2023-04-16T07:26:01.445Z,9.29
2023-04-16T07:28:28.079Z,9.34
2023-04-16T07:30:54.827Z,9.32
2023-04-16T07:33:21.461Z,9.40
2023-04-16T07:35:48.080Z,9.34
2023-04-16T07:38:15.121Z,9.41
2023-04-16T07:40:41.770Z,9.48
2023-04-16T07:43:08.715Z,9.47
2023-04-16T07:45:35.452Z,9.64
2023-04-16T07:48:02.188Z,9.77
2023-04-16T07:50:29.953Z,9.85
2023-04-16T07:52:56.539Z,9.88
2023-04-16T07:55:23.095Z,9.94
2023-04-16T07:57:49.676Z,9.91
2023-04-16T08:00:16.617Z,10.03
2023-04-16T08:02:44.433Z,10.15
2023-04-16T08:05:12.635Z,10.23
2023-04-16T08:07:39.271Z,10.13
2023-04-16T08:10:06.539Z,10.15
2023-04-16T08:12:33.219Z,10.08
2023-04-16T08:14:59.814Z,10.25
2023-04-16T08:17:26.540Z,10.39
2023-04-16T08:19:53.133Z,10.30
2023-04-16T08:22:19.848Z,10.32
2023-04-16T08:24:46.464Z,10.29
2023-04-16T08:27:18.972Z,10.39
2023-04-16T08:29:46.257Z,10.33
2023-04-16T08:32:13.157Z,10.36
2023-04-16T08:34:39.712Z,10.25
2023-04-16T08:37:06.306Z,10.45
2023-04-16T08:39:33.165Z,10.55
2023-04-16T08:42:04.878Z,10.56
2023-04-16T08:44:37.535Z,10.74
2023-04-16T08:47:07.597Z,10.85
2023-04-16T08:49:36.979Z,10.84
2023-04-16T08:52:06.768Z,10.91
2023-04-16T08:55:02.005Z,10.84
2023-04-16T08:57:35.733Z,11.08
2023-04-16T09:00:02.733Z,10.98
2023-04-16T09:02:31.559Z,10.94
2023-04-16T09:05:00.386Z,10.87
2023-04-16T09:07:29.015Z,11.07
2023-04-16T09:09:57.972Z,11.07
2023-04-16T09:12:30.794Z,10.95
2023-04-16T09:14:57.638Z,10.98
2023-04-16T09:17:25.403Z,10.97
2023-04-16T09:19:52.146Z,10.98
2023-04-16T09:22:18.778Z,11.24
2023-04-16T09:24:45.679Z,11.17
2023-04-16T09:27:13.102Z,11.07
2023-04-16T09:29:41.644Z,11.06
2023-04-16T09:32:10.276Z,11.17
2023-04-16T09:34:55.842Z,11.27
2023-04-16T09:37:22.429Z,11.29
2023-04-16T09:40:04.004Z,11.31
2023-04-16T09:42:32.796Z,11.39
2023-04-16T09:45:00.929Z,11.31
2023-04-16T09:47:41.559Z,11.24
2023-04-16T09:50:11.815Z,11.22
2023-04-16T09:52:39.284Z,11.27
2023-04-16T09:55:06.657Z,11.31
2023-04-16T09:57:33.292Z,11.34
2023-04-16T10:00:05.288Z,11.36
2023-04-16T10:02:33.324Z,11.27
2023-04-16T10:05:02.432Z,11.38
2023-04-16T10:07:31.755Z,11.39
2023-04-16T10:09:59.086Z,11.48
2023-04-16T10:12:28.262Z,11.53
2023-04-16T10:14:56.172Z,11.56
2023-04-16T10:17:24.085Z,11.71
2023-04-16T10:19:51.387Z,11.86
2023-04-16T10:22:18.340Z,11.75
2023-04-16T10:24:46.892Z,11.83
2023-04-16T10:27:15.536Z,11.65
2023-04-16T10:29:44.035Z,11.66
2023-04-16T10:32:12.277Z,11.62
2023-04-16T10:34:39.256Z,11.76
2023-04-16T10:37:05.991Z,11.97
2023-04-16T10:39:37.662Z,12.17
2023-04-16T10:42:09.549Z,12.07
2023-04-16T10:44:36.700Z,12.22
2023-04-16T10:47:13.457Z,12.08
2023-04-16T10:49:41.333Z,12.25
2023-04-16T10:52:12.270Z,12.31
2023-04-16T10:54:39.784Z,12.44
2023-04-16T10:57:08.994Z,12.51
2023-04-16T10:59:37.943Z,12.64
2023-04-16T11:02:13.324Z,12.51
2023-04-16T11:04:43.389Z,12.38
2023-04-16T11:07:17.701Z,12.14
2023-04-16T11:09:55.612Z,12.27
2023-04-16T11:12:44.904Z,12.22
2023-04-16T11:15:15.552Z,12.52
2023-04-16T11:17:48.145Z,12.97
2023-04-16T11:20:21.042Z,12.90
2023-04-16T11:22:52.442Z,13.20
2023-04-16T11:25:34.205Z,13.31
2023-04-16T11:28:02.483Z,12.86
2023-04-16T11:30:31.684Z,12.90
2023-04-16T11:32:58.479Z,12.97
2023-04-16T11:35:25.354Z,13.15
2023-04-16T11:37:58.961Z,13.19
2023-04-16T11:40:30.060Z,13.16
2023-04-16T11:43:02.697Z,13.44
2023-04-16T11:45:29.513Z,13.36
2023-04-16T11:47:58.025Z,12.96
2023-04-16T11:50:30.039Z,12.83
2023-04-16T11:53:04.349Z,12.93
2023-04-16T11:55:31.391Z,12.99
2023-04-16T11:57:57.978Z,12.95
2023-04-16T12:00:27.612Z,13.24
2023-04-16T12:08:33.337Z,13.20
2023-04-16T12:11:03.479Z,13.20
2023-04-16T12:13:30.813Z,13.62
2023-04-16T12:15:57.509Z,13.67
2023-04-16T12:21:08.862Z,14.04
2023-04-16T12:23:43.049Z,14.10
2023-04-16T12:26:12.775Z,14.59
2023-04-16T12:34:18.532Z,14.29
2023-04-16T12:39:29.597Z,14.41
2023-04-16T12:41:56.301Z,14.16
2023-04-16T12:44:23.985Z,13.95
2023-04-16T12:46:50.510Z,13.86
2023-04-16T12:49:17.073Z,14.30
2023-04-16T12:54:24.803Z,14.23
2023-04-16T12:59:34.937Z,14.23
2023-04-16T13:02:02.943Z,14.10
2023-04-16T13:07:10.073Z,14.17
2023-04-16T13:09:43.549Z,14.10
2023-04-16T13:12:16.570Z,13.85
2023-04-16T13:17:23.735Z,13.89
2023-04-16T13:19:51.704Z,13.81
2023-04-16T13:27:45.826Z,14.10
2023-04-16T13:30:12.822Z,14.08
2023-04-16T13:32:47.006Z,14.37
2023-04-16T13:35:14.222Z,14.38
2023-04-16T13:37:40.772Z,14.49
2023-04-16T13:40:08.434Z,14.63
2023-04-16T13:42:45.510Z,14.41
2023-04-16T13:45:13.932Z,14.37
2023-04-16T13:50:23.321Z,13.95
2023-04-16T13:52:49.900Z,14.08
2023-04-16T13:55:19.301Z,14.12
2023-04-16T13:57:51.211Z,14.15
2023-04-16T14:00:20.799Z,14.34
2023-04-16T14:02:49.106Z,14.43
2023-04-16T14:05:25.812Z,14.53
2023-04-16T14:07:56.467Z,14.33
2023-04-16T14:13:03.626Z,14.17
2023-04-16T14:18:10.876Z,14.01
2023-04-16T14:20:39.930Z,14.05
2023-04-16T14:23:06.770Z,14.09
2023-04-16T14:25:34.077Z,14.01
2023-04-16T14:30:41.691Z,13.98
2023-04-16T14:33:08.295Z,13.89
2023-04-16T14:35:35.041Z,14.05
2023-04-16T14:38:02.301Z,14.04
2023-04-16T14:40:28.947Z,13.94
2023-04-16T14:45:39.197Z,13.94
2023-04-16T14:50:46.722Z,14.05
2023-04-16T14:55:54.894Z,14.44
2023-04-16T14:58:22.130Z,14.67
2023-04-16T15:03:31.057Z,14.34
2023-04-16T15:05:58.462Z,14.63
2023-04-16T15:08:25.077Z,14.64
2023-04-16T15:10:51.930Z,14.57
2023-04-16T15:13:18.516Z,14.49
2023-04-16T15:15:45.529Z,14.47
2023-04-16T15:18:12.464Z,14.27
2023-04-16T15:20:39.218Z,14.43
2023-04-16T15:23:06.007Z,14.91
2023-04-16T15:25:32.660Z,14.92
2023-04-16T15:27:59.557Z,15.22
2023-04-16T15:30:26.246Z,15.15
2023-04-16T15:32:55.059Z,14.89
2023-04-16T15:35:22.685Z,15.04
2023-04-16T15:37:49.251Z,14.92
2023-04-16T15:40:18.918Z,15.05
2023-04-16T15:42:45.796Z,15.15
2023-04-16T15:45:15.290Z,15.06
2023-04-16T15:47:42.565Z,14.96
2023-04-16T15:50:09.729Z,14.99
2023-04-16T15:52:38.667Z,14.78
2023-04-16T15:57:48.274Z,14.80
2023-04-16T16:02:58.589Z,16.03
2023-04-16T16:05:35.062Z,15.96
2023-04-16T16:08:01.934Z,15.84
2023-04-16T16:10:28.576Z,16.90
2023-04-16T16:15:35.550Z,16.46
2023-04-16T16:20:44.266Z,16.71
2023-04-16T16:23:12.056Z,16.49
2023-04-16T16:25:43.498Z,16.83
2023-04-16T16:28:10.286Z,16.65
2023-04-16T16:30:36.913Z,16.42
2023-04-16T16:35:44.048Z,15.59
2023-04-16T16:38:13.525Z,15.39
2023-04-16T16:40:40.108Z,15.35
2023-04-16T16:45:47.361Z,14.85
2023-04-16T16:51:00.825Z,14.81
2023-04-16T16:56:09.063Z,14.56
2023-04-16T16:58:35.800Z,14.47
2023-04-16T17:01:10.295Z,14.47
2023-04-16T17:03:37.035Z,14.43
2023-04-16T17:06:03.881Z,14.37
2023-04-16T17:08:34.360Z,14.37
2023-04-16T17:11:04.558Z,14.36
2023-04-16T17:16:17.134Z,14.12
2023-04-16T17:18:43.743Z,14.15
2023-04-16T17:23:50.963Z,14.10
2023-04-16T17:26:17.640Z,14.10
2023-04-16T17:31:27.996Z,14.06
2023-04-16T17:36:37.002Z,13.55
2023-04-16T17:41:54.298Z,13.26
2023-04-16T17:44:27.016Z,13.17
2023-04-16T17:46:54.871Z,13.12
2023-04-16T17:49:21.483Z,13.07
2023-04-16T17:58:40.597Z,12.86
2023-04-16T18:01:07.356Z,12.79
2023-04-16T18:03:36.798Z,12.86
2023-04-16T18:06:04.322Z,12.85
2023-04-16T18:08:31.852Z,12.76
2023-04-16T18:10:58.720Z,12.59
2023-04-16T18:13:25.544Z,12.58
2023-04-16T18:15:53.220Z,12.51
2023-04-16T18:18:25.512Z,12.51
2023-04-16T18:20:52.923Z,12.45
2023-04-16T18:23:19.710Z,12.27
2023-04-16T18:25:48.836Z,12.31
2023-04-16T18:28:16.023Z,12.37
2023-04-16T18:30:43.000Z,12.32
2023-04-16T18:35:40.799Z,12.29
2023-04-16T18:38:07.772Z,12.32
2023-04-16T18:40:36.085Z,12.28
2023-04-16T18:43:04.917Z,12.22
2023-04-16T18:45:34.225Z,12.25
2023-04-16T18:48:04.713Z,12.27
2023-04-16T18:50:34.656Z,12.21
2023-04-16T18:53:03.262Z,12.14
2023-04-16T18:55:30.845Z,12.13
2023-04-16T18:57:57.926Z,12.08
2023-04-16T19:00:24.842Z,12.06
2023-04-16T19:02:51.572Z,12.08
2023-04-16T19:05:18.902Z,11.96
2023-04-16T19:07:46.144Z,12.01
2023-04-16T19:10:12.949Z,11.99
2023-04-16T19:12:39.694Z,12.11
2023-04-16T19:15:07.037Z,12.04
2023-04-16T19:17:34.127Z,12.01
2023-04-16T19:20:08.513Z,12.03
2023-04-16T19:22:35.885Z,12.04
2023-04-16T19:25:02.724Z,12.00
2023-04-16T19:27:29.775Z,12.04
2023-04-16T19:29:58.596Z,12.01
2023-04-16T19:32:25.540Z,12.01
2023-04-16T19:34:54.587Z,11.93
2023-04-16T19:37:21.468Z,12.03
2023-04-16T19:39:48.993Z,11.96
2023-04-16T19:42:15.955Z,12.01
2023-04-16T19:44:45.454Z,11.99
2023-04-16T19:47:12.203Z,12.01
2023-04-16T19:49:41.740Z,11.91
2023-04-16T19:52:08.624Z,11.91
2023-04-16T19:54:37.691Z,11.89
2023-04-16T19:57:04.774Z,11.87
2023-04-16T19:59:32.499Z,11.87
2023-04-16T20:01:59.460Z,11.79
2023-04-16T20:04:26.639Z,11.76
2023-04-16T20:06:53.736Z,11.79
2023-04-16T20:09:20.584Z,11.79
2023-04-16T20:11:47.698Z,11.71
2023-04-16T20:14:14.572Z,11.70
2023-04-16T20:16:43.933Z,11.67
2023-04-16T20:19:11.282Z,11.69
2023-04-16T20:21:40.821Z,11.63
2023-04-16T20:24:10.831Z,11.62
2023-04-16T20:26:37.851Z,11.60
2023-04-16T20:29:04.821Z,11.56
2023-04-16T20:31:38.032Z,11.53
2023-04-16T20:34:05.032Z,11.46
2023-04-16T20:36:32.284Z,11.52
2023-04-16T20:39:00.119Z,11.46
2023-04-16T20:41:30.316Z,11.49
2023-04-16T20:43:57.081Z,11.38
2023-04-16T20:46:24.688Z,11.39
2023-04-16T20:48:52.147Z,11.39
2023-04-16T20:51:19.082Z,11.39
2023-04-16T20:53:45.804Z,11.41
2023-04-16T20:56:15.115Z,11.32
2023-04-16T20:58:42.905Z,11.29
2023-04-16T21:01:09.907Z,11.32
2023-04-16T21:03:37.397Z,11.29
2023-04-16T21:06:05.088Z,11.32
2023-04-16T21:08:53.911Z,11.34
2023-04-16T21:11:36.630Z,11.34
2023-04-16T21:14:04.986Z,11.27
2023-04-16T21:28:30.159Z,11.22
2023-04-16T21:35:03.991Z,11.29
2023-04-16T21:37:43.609Z,11.24
2023-04-16T21:40:51.509Z,11.17
2023-04-16T21:44:20.849Z,11.08
2023-04-16T21:47:53.000Z,10.97
